sensor_id;sensor_type;location;lat;lon;timestamp;pressure;altitude;pressure_sealevel;temperature;humidity
61014;BME280;46899;47.542;19.082;2023-04-09T00:01:08;101141.06;;;3.93;100.00
61014;BME280;46899;47.542;19.082;2023-04-09T00:04:10;101141.94;;;3.98;100.00
61014;BME280;46899;47.542;19.082;2023-04-09T00:07:13;101145.37;;;4.01;100.00
61014;BME280;46899;47.542;19.082;2023-04-09T00:10:16;101152.22;;;3.96;100.00
61014;BME280;46899;47.542;19.082;2023-04-09T00:13:18;101152.22;;;3.95;100.00
61014;BME280;46899;47.542;19.082;2023-04-09T00:16:37;101139.38;;;4.05;100.00
61014;BME280;46899;47.542;19.082;2023-04-09T00:19:39;101151.34;;;3.94;100.00
61014;BME280;46899;47.542;19.082;2023-04-09T00:22:42;101146.19;;;3.91;100.00
61014;BME280;46899;47.542;19.082;2023-04-09T00:25:44;101137.66;;;3.95;100.00
61014;BME280;46899;47.542;19.082;2023-04-09T00:28:47;101136.78;;;4.01;100.00
61014;BME280;46899;47.542;19.082;2023-04-09T00:31:49;101141.94;;;3.95;100.00
61014;BME280;46899;47.542;19.082;2023-04-09T00:34:52;101141.94;;;3.99;100.00
61014;BME280;46899;47.542;19.082;2023-04-09T00:37:54;101149.66;;;3.99;100.00
61014;BME280;46899;47.542;19.082;2023-04-09T00:40:57;101143.66;;;3.99;100.00
61014;BME280;46899;47.542;19.082;2023-04-09T00:44:00;101138.53;;;4.06;100.00
61014;BME280;46899;47.542;19.082;2023-04-09T00:47:03;101131.69;;;4.08;100.00
61014;BME280;46899;47.542;19.082;2023-04-09T00:50:06;101141.97;;;4.08;100.00
61014;BME280;46899;47.542;19.082;2023-04-09T00:53:09;101134.25;;;4.08;100.00
61014;BME280;46899;47.542;19.082;2023-04-09T00:56:11;101134.22;;;4.05;100.00
61014;BME280;46899;47.542;19.082;2023-04-09T00:59:14;101135.97;;;4.06;100.00
61014;BME280;46899;47.542;19.082;2023-04-09T01:02:17;101135.09;;;4.07;100.00
61014;BME280;46899;47.542;19.082;2023-04-09T01:05:20;101140.31;;;4.21;100.00
61014;BME280;46899;47.542;19.082;2023-04-09T01:08:28;101142.00;;;4.13;100.00
61014;BME280;46899;47.542;19.082;2023-04-09T01:11:46;101136.00;;;4.20;100.00
61014;BME280;46899;47.542;19.082;2023-04-09T01:14:53;101141.16;;;4.20;100.00
61014;BME280;46899;47.542;19.082;2023-04-09T01:18:02;101140.31;;;4.21;100.00
61014;BME280;46899;47.542;19.082;2023-04-09T01:21:10;101131.69;;;4.14;100.00
61014;BME280;46899;47.542;19.082;2023-04-09T01:24:18;101138.59;;;4.22;100.00
61014;BME280;46899;47.542;19.082;2023-04-09T01:27:22;101131.75;;;4.28;100.00
61014;BME280;46899;47.542;19.082;2023-04-09T01:30:27;101134.34;;;4.39;100.00
61014;BME280;46899;47.542;19.082;2023-04-09T01:33:30;101130.91;;;4.31;100.00
61014;BME280;46899;47.542;19.082;2023-04-09T01:36:34;101138.63;;;4.32;100.00
61014;BME280;46899;47.542;19.082;2023-04-09T01:39:37;101136.88;;;4.27;100.00
61014;BME280;46899;47.542;19.082;2023-04-09T01:42:40;101140.31;;;4.29;100.00
61014;BME280;46899;47.542;19.082;2023-04-09T01:45:44;101136.91;;;4.30;100.00
61014;BME280;46899;47.542;19.082;2023-04-09T01:48:54;101141.22;;;4.31;100.00
61014;BME280;46899;47.542;19.082;2023-04-09T01:51:58;101136.03;;;4.19;100.00
61014;BME280;46899;47.542;19.082;2023-04-09T01:55:00;101130.81;;;4.12;100.00
61014;BME280;46899;47.542;19.082;2023-04-09T01:58:03;101137.69;;;4.10;100.00
61014;BME280;46899;47.542;19.082;2023-04-09T02:04:09;101139.41;;;4.02;100.00
61014;BME280;46899;47.542;19.082;2023-04-09T02:07:30;101137.72;;;4.17;100.00
61014;BME280;46899;47.542;19.082;2023-04-09T02:10:37;101141.97;;;4.08;100.00
61014;BME280;46899;47.542;19.082;2023-04-09T02:13:40;101139.34;;;3.92;100.00
61014;BME280;46899;47.542;19.082;2023-04-09T02:16:44;101137.59;;;3.89;100.00
61014;BME280;46899;47.542;19.082;2023-04-09T02:19:47;101138.44;;;3.81;100.00
61014;BME280;46899;47.542;19.082;2023-04-09T02:22:50;101135.81;;;3.79;100.00
61014;BME280;46899;47.542;19.082;2023-04-09T02:25:52;101144.38;;;3.69;100.00
61014;BME280;46899;47.542;19.082;2023-04-09T02:28:55;101132.31;;;3.59;100.00
61014;BME280;46899;47.542;19.082;2023-04-09T02:31:57;101129.72;;;3.53;100.00
61014;BME280;46899;47.542;19.082;2023-04-09T02:35:00;101133.16;;;3.61;100.00
61014;BME280;46899;47.542;19.082;2023-04-09T02:38:03;101128.78;;;3.45;100.00
61014;BME280;46899;47.542;19.082;2023-04-09T02:41:06;101135.66;;;3.49;100.00
61014;BME280;46899;47.542;19.082;2023-04-09T02:44:08;101128.78;;;3.45;100.00
61014;BME280;46899;47.542;19.082;2023-04-09T02:47:11;101128.69;;;3.31;100.00
61014;BME280;46899;47.542;19.082;2023-04-09T02:50:14;101132.94;;;3.28;100.00
61014;BME280;46899;47.542;19.082;2023-04-09T02:53:18;101136.41;;;3.31;100.00
61014;BME280;46899;47.542;19.082;2023-04-09T02:56:22;101126.19;;;3.39;100.00
61014;BME280;46899;47.542;19.082;2023-04-09T02:59:25;101127.16;;;3.58;100.00
61014;BME280;46899;47.542;19.082;2023-04-09T03:02:27;101136.66;;;3.69;100.00
61014;BME280;46899;47.542;19.082;2023-04-09T03:05:30;101131.47;;;3.63;100.00
61014;BME280;46899;47.542;19.082;2023-04-09T03:08:33;101133.19;;;3.63;100.00
61014;BME280;46899;47.542;19.082;2023-04-09T03:11:36;101132.31;;;3.65;100.00
61014;BME280;46899;47.542;19.082;2023-04-09T03:14:38;101128.06;;;3.70;100.00
61014;BME280;46899;47.542;19.082;2023-04-09T03:17:41;101130.62;;;3.70;100.00
61014;BME280;46899;47.542;19.082;2023-04-09T03:20:44;101131.53;;;3.75;100.00
61014;BME280;46899;47.542;19.082;2023-04-09T03:23:47;101134.09;;;3.75;100.00
61014;BME280;46899;47.542;19.082;2023-04-09T03:26:49;101138.50;;;3.93;100.00
61014;BME280;46899;47.542;19.082;2023-04-09T03:29:54;101131.59;;;3.92;100.00
61014;BME280;46899;47.542;19.082;2023-04-09T03:32:57;101124.72;;;3.89;100.00
61014;BME280;46899;47.542;19.082;2023-04-09T03:36:01;101125.63;;;3.96;100.00
61014;BME280;46899;47.542;19.082;2023-04-09T03:39:04;101127.31;;;3.89;100.00
61014;BME280;46899;47.542;19.082;2023-04-09T03:42:08;101128.16;;;3.91;100.00
61014;BME280;46899;47.542;19.082;2023-04-09T03:45:14;101132.50;;;3.95;100.00
61014;BME280;46899;47.542;19.082;2023-04-09T03:48:17;101132.50;;;4.01;100.00
61014;BME280;46899;47.542;19.082;2023-04-09T03:51:20;101146.22;;;3.97;100.00
61014;BME280;46899;47.542;19.082;2023-04-09T03:54:23;101137.66;;;3.95;100.00
61014;BME280;46899;47.542;19.082;2023-04-09T03:57:27;101144.50;;;3.96;100.00
61014;BME280;46899;47.542;19.082;2023-04-09T04:00:30;101135.94;;;4.03;100.00
61014;BME280;46899;47.542;19.082;2023-04-09T04:03:38;101141.97;;;4.04;100.00
61014;BME280;46899;47.542;19.082;2023-04-09T04:06:42;101147.97;;;4.04;100.00
61014;BME280;46899;47.542;19.082;2023-04-09T04:09:46;101140.25;;;4.04;100.00
61014;BME280;46899;47.542;19.082;2023-04-09T04:12:49;101150.56;;;4.10;100.00
61014;BME280;46899;47.542;19.082;2023-04-09T04:15:52;101145.44;;;4.15;100.00
61014;BME280;46899;47.542;19.082;2023-04-09T04:18:56;101147.16;;;4.11;100.00
61014;BME280;46899;47.542;19.082;2023-04-09T04:21:59;101143.69;;;4.12;100.00
61014;BME280;46899;47.542;19.082;2023-04-09T04:25:03;101146.31;;;4.19;100.00
61014;BME280;46899;47.542;19.082;2023-04-09T04:28:11;101148.06;;;4.26;100.00
61014;BME280;46899;47.542;19.082;2023-04-09T04:31:14;101148.06;;;4.26;100.00
61014;BME280;46899;47.542;19.082;2023-04-09T04:34:18;101150.62;;;4.29;100.00
61014;BME280;46899;47.542;19.082;2023-04-09T04:37:21;101153.22;;;4.32;100.00
61014;BME280;46899;47.542;19.082;2023-04-09T04:40:27;101164.41;;;4.35;100.00
61014;BME280;46899;47.542;19.082;2023-04-09T04:43:30;101163.56;;;4.38;100.00
61014;BME280;46899;47.542;19.082;2023-04-09T04:46:34;101166.13;;;4.38;100.00
61014;BME280;46899;47.542;19.082;2023-04-09T04:49:36;101165.28;;;4.42;100.00
61014;BME280;46899;47.542;19.082;2023-04-09T04:52:40;101167.88;;;4.51;100.00
61014;BME280;46899;47.542;19.082;2023-04-09T04:55:43;101175.63;;;4.55;100.00
61014;BME280;46899;47.542;19.082;2023-04-09T04:58:47;101175.59;;;4.45;100.00
61014;BME280;46899;47.542;19.082;2023-04-09T05:01:50;101163.59;;;4.53;100.00
61014;BME280;46899;47.542;19.082;2023-04-09T05:04:53;101175.59;;;4.51;100.00
61014;BME280;46899;47.542;19.082;2023-04-09T05:07:57;101170.50;;;4.57;100.00
61014;BME280;46899;47.542;19.082;2023-04-09T05:11:01;101162.75;;;4.57;100.00
61014;BME280;46899;47.542;19.082;2023-04-09T05:14:04;101167.91;;;4.61;100.00
61014;BME280;46899;47.542;19.082;2023-04-09T05:17:08;101169.66;;;4.77;100.00
61014;BME280;46899;47.542;19.082;2023-04-09T05:20:12;101168.78;;;4.83;100.00
61014;BME280;46899;47.542;19.082;2023-04-09T05:23:17;101164.53;;;4.96;100.00
61014;BME280;46899;47.542;19.082;2023-04-09T05:26:20;101172.25;;;4.96;100.00
61014;BME280;46899;47.542;19.082;2023-04-09T05:29:23;101175.69;;;5.02;100.00
61014;BME280;46899;47.542;19.082;2023-04-09T05:32:26;101179.13;;;5.09;100.00
61014;BME280;46899;47.542;19.082;2023-04-09T05:35:29;101175.72;;;5.20;100.00
61014;BME280;46899;47.542;19.082;2023-04-09T05:38:32;101181.72;;;5.24;100.00
61014;BME280;46899;47.542;19.082;2023-04-09T05:41:35;101182.59;;;5.21;100.00
61014;BME280;46899;47.542;19.082;2023-04-09T05:44:42;101184.31;;;5.34;100.00
61014;BME280;46899;47.542;19.082;2023-04-09T05:47:45;101181.72;;;5.36;100.00
61014;BME280;46899;47.542;19.082;2023-04-09T05:50:48;101189.47;;;5.40;100.00
61014;BME280;46899;47.542;19.082;2023-04-09T05:53:57;101189.47;;;5.52;100.00
61014;BME280;46899;47.542;19.082;2023-04-09T05:57:04;101199.78;;;5.42;100.00
61014;BME280;46899;47.542;19.082;2023-04-09T06:00:08;101191.16;;;5.49;100.00
61014;BME280;46899;47.542;19.082;2023-04-09T06:03:17;101194.62;;;5.56;100.00
61014;BME280;46899;47.542;19.082;2023-04-09T06:06:21;101204.94;;;5.65;100.00
61014;BME280;46899;47.542;19.082;2023-04-09T06:09:23;101204.94;;;5.69;100.00
61014;BME280;46899;47.542;19.082;2023-04-09T06:12:26;101204.06;;;5.73;100.00
61014;BME280;46899;47.542;19.082;2023-04-09T06:15:28;101205.78;;;5.74;100.00
61014;BME280;46899;47.542;19.082;2023-04-09T06:18:31;101208.38;;;5.91;100.00
61014;BME280;46899;47.542;19.082;2023-04-09T06:21:34;101210.06;;;5.95;100.00
61014;BME280;46899;47.542;19.082;2023-04-09T06:24:36;101204.03;;;5.99;100.00
61014;BME280;46899;47.542;19.082;2023-04-09T06:27:39;101214.31;;;6.15;100.00
61014;BME280;46899;47.542;19.082;2023-04-09T06:30:41;101212.53;;;6.36;100.00
61014;BME280;46899;47.542;19.082;2023-04-09T06:33:44;101214.28;;;6.25;100.00
61014;BME280;46899;47.542;19.082;2023-04-09T06:36:46;101208.22;;;6.33;100.00
61014;BME280;46899;47.542;19.082;2023-04-09T06:39:49;101207.38;;;6.33;100.00
61014;BME280;46899;47.542;19.082;2023-04-09T06:43:02;101212.50;;;6.40;100.00
61014;BME280;46899;47.542;19.082;2023-04-09T06:46:09;101217.63;;;6.54;100.00
61014;BME280;46899;47.542;19.082;2023-04-09T06:49:12;101215.00;;;6.55;100.00
61014;BME280;46899;47.542;19.082;2023-04-09T06:52:15;101211.47;;;6.74;100.00
61014;BME280;46899;47.542;19.082;2023-04-09T06:55:17;101209.78;;;6.67;100.00
61014;BME280;46899;47.542;19.082;2023-04-09T06:58:20;101222.78;;;6.54;100.00
61014;BME280;46899;47.542;19.082;2023-04-09T07:01:23;101225.31;;;6.66;100.00
61014;BME280;46899;47.542;19.082;2023-04-09T07:04:26;101222.66;;;6.78;100.00
61014;BME280;46899;47.542;19.082;2023-04-09T07:07:29;101233.87;;;6.75;100.00
61014;BME280;46899;47.542;19.082;2023-04-09T07:10:33;101233.87;;;6.74;100.00
61014;BME280;46899;47.542;19.082;2023-04-09T07:13:35;101238.19;;;6.75;100.00
61014;BME280;46899;47.542;19.082;2023-04-09T07:16:38;101229.44;;;6.93;100.00
61014;BME280;46899;47.542;19.082;2023-04-09T07:19:40;101238.91;;;6.98;100.00
61014;BME280;46899;47.542;19.082;2023-04-09T07:22:43;101234.53;;;7.09;100.00
61014;BME280;46899;47.542;19.082;2023-04-09T07:25:46;101238.78;;;7.19;100.00
61014;BME280;46899;47.542;19.082;2023-04-09T07:28:49;101239.53;;;7.33;98.14
61014;BME280;46899;47.542;19.082;2023-04-09T07:31:52;101244.69;;;7.35;97.97
61014;BME280;46899;47.542;19.082;2023-04-09T07:34:55;101248.06;;;7.47;99.49
61014;BME280;46899;47.542;19.082;2023-04-09T07:37:58;101245.31;;;7.67;97.50
61014;BME280;46899;47.542;19.082;2023-04-09T07:41:01;101240.97;;;7.69;95.36
61014;BME280;46899;47.542;19.082;2023-04-09T07:44:04;101252.75;;;8.02;94.68
61014;BME280;46899;47.542;19.082;2023-04-09T07:47:07;101247.47;;;8.09;91.82
61014;BME280;46899;47.542;19.082;2023-04-09T07:50:10;101243.84;;;8.27;90.29
61014;BME280;46899;47.542;19.082;2023-04-09T07:53:13;101258.25;;;8.51;88.59
61014;BME280;46899;47.542;19.082;2023-04-09T07:56:16;101246.81;;;8.67;88.98
61014;BME280;46899;47.542;19.082;2023-04-09T07:59:19;101254.13;;;9.03;90.37
61014;BME280;46899;47.542;19.082;2023-04-09T08:02:22;101254.53;;;9.34;84.73
61014;BME280;46899;47.542;19.082;2023-04-09T08:05:26;101266.34;;;9.53;77.93
61014;BME280;46899;47.542;19.082;2023-04-09T08:08:29;101249.25;;;9.90;78.29
61014;BME280;46899;47.542;19.082;2023-04-09T08:11:32;101254.31;;;9.98;77.96
61014;BME280;46899;47.542;19.082;2023-04-09T08:14:36;101261.44;;;10.36;76.69
61014;BME280;46899;47.542;19.082;2023-04-09T08:17:39;101257.00;;;10.39;75.71
61014;BME280;46899;47.542;19.082;2023-04-09T08:20:41;101258.47;;;10.54;73.66
61014;BME280;46899;47.542;19.082;2023-04-09T08:23:47;101265.91;;;10.29;73.98
61014;BME280;46899;47.542;19.082;2023-04-09T08:26:49;101263.50;;;10.18;75.06
61014;BME280;46899;47.542;19.082;2023-04-09T08:29:52;101275.03;;;10.50;79.10
61014;BME280;46899;47.542;19.082;2023-04-09T08:32:55;101270.53;;;10.10;78.88
61014;BME280;46899;47.542;19.082;2023-04-09T08:35:58;101265.50;;;10.01;76.33
61014;BME280;46899;47.542;19.082;2023-04-09T08:39:03;101269.00;;;10.46;74.87
61014;BME280;46899;47.542;19.082;2023-04-09T08:42:05;101268.66;;;10.64;72.95
61014;BME280;46899;47.542;19.082;2023-04-09T08:45:09;101271.34;;;10.17;77.02
61014;BME280;46899;47.542;19.082;2023-04-09T08:48:13;101273.06;;;10.61;79.25
61014;BME280;46899;47.542;19.082;2023-04-09T08:51:16;101280.56;;;10.74;74.01
61014;BME280;46899;47.542;19.082;2023-04-09T08:54:19;101281.13;;;10.00;74.67
61014;BME280;46899;47.542;19.082;2023-04-09T08:57:21;101285.72;;;10.35;77.60
61014;BME280;46899;47.542;19.082;2023-04-09T09:00:24;101285.91;;;10.68;75.40
61014;BME280;46899;47.542;19.082;2023-04-09T09:03:27;101288.53;;;10.68;73.25
61014;BME280;46899;47.542;19.082;2023-04-09T09:06:31;101290.97;;;10.33;76.02
61014;BME280;46899;47.542;19.082;2023-04-09T09:09:34;101294.09;;;10.91;72.85
61014;BME280;46899;47.542;19.082;2023-04-09T09:12:51;101294.44;;;11.16;71.62
61014;BME280;46899;47.542;19.082;2023-04-09T09:15:54;101292.56;;;10.81;73.61
61014;BME280;46899;47.542;19.082;2023-04-09T09:22:27;101300.22;;;10.89;76.14
61014;BME280;46899;47.542;19.082;2023-04-09T09:25:36;101296.94;;;10.38;75.68
61014;BME280;46899;47.542;19.082;2023-04-09T09:28:38;101291.81;;;10.76;74.43
61014;BME280;46899;47.542;19.082;2023-04-09T09:31:49;101289.22;;;10.76;76.37
61014;BME280;46899;47.542;19.082;2023-04-09T09:38:01;101290.06;;;11.17;72.74
61014;BME280;46899;47.542;19.082;2023-04-09T09:41:15;101292.38;;;11.30;73.16
61014;BME280;46899;47.542;19.082;2023-04-09T09:44:30;101287.16;;;10.90;71.80
61014;BME280;46899;47.542;19.082;2023-04-09T09:47:33;101291.78;;;11.18;69.58
61014;BME280;46899;47.542;19.082;2023-04-09T09:50:37;101294.75;;;10.61;73.28
61014;BME280;46899;47.542;19.082;2023-04-09T09:53:40;101289.91;;;10.84;71.10
61014;BME280;46899;47.542;19.082;2023-04-09T09:56:44;101280.22;;;10.92;77.68
61014;BME280;46899;47.542;19.082;2023-04-09T09:59:54;101278.84;;;10.75;72.48
61014;BME280;46899;47.542;19.082;2023-04-09T10:03:06;101288.72;;;10.58;70.87
61014;BME280;46899;47.542;19.082;2023-04-09T10:06:09;101277.50;;;10.11;77.49
61014;BME280;46899;47.542;19.082;2023-04-09T10:09:12;101276.53;;;10.15;77.08
61014;BME280;46899;47.542;19.082;2023-04-09T10:12:15;101280.87;;;10.16;75.50
61014;BME280;46899;47.542;19.082;2023-04-09T10:15:19;101278.91;;;9.79;79.47
61014;BME280;46899;47.542;19.082;2023-04-09T10:18:22;101275.16;;;9.95;82.04
61014;BME280;46899;47.542;19.082;2023-04-09T10:21:33;101285.75;;;9.83;78.21
61014;BME280;46899;47.542;19.082;2023-04-09T10:24:40;101284.53;;;10.03;76.02
61014;BME280;46899;47.542;19.082;2023-04-09T10:27:42;101287.28;;;9.94;74.35
61014;BME280;46899;47.542;19.082;2023-04-09T10:30:50;101286.09;;;10.15;78.05
61014;BME280;46899;47.542;19.082;2023-04-09T10:33:54;101277.53;;;10.07;76.87
61014;BME280;46899;47.542;19.082;2023-04-09T10:37:08;101283.94;;;10.38;78.85
61014;BME280;46899;47.542;19.082;2023-04-09T10:40:17;101280.19;;;10.51;76.42
61014;BME280;46899;47.542;19.082;2023-04-09T10:43:20;101270.75;;;10.47;77.23
61014;BME280;46899;47.542;19.082;2023-04-09T10:46:35;101280.78;;;10.65;73.86
61014;BME280;46899;47.542;19.082;2023-04-09T10:49:39;101280.00;;;10.62;73.69
61014;BME280;46899;47.542;19.082;2023-04-09T10:52:41;101273.56;;;11.18;72.43
61014;BME280;46899;47.542;19.082;2023-04-09T10:55:49;101272.13;;;11.78;71.87
61014;BME280;46899;47.542;19.082;2023-04-09T10:58:52;101275.72;;;12.08;71.26
61014;BME280;46899;47.542;19.082;2023-04-09T11:01:55;101274.78;;;12.10;70.14
61014;BME280;46899;47.542;19.082;2023-04-09T11:08:11;101269.25;;;11.52;68.37
61014;BME280;46899;47.542;19.082;2023-04-09T11:11:14;101261.19;;;11.62;72.17
61014;BME280;46899;47.542;19.082;2023-04-09T11:14:18;101269.47;;;11.44;70.78
61014;BME280;46899;47.542;19.082;2023-04-09T11:17:20;101267.00;;;11.38;77.04
61014;BME280;46899;47.542;19.082;2023-04-09T11:20:24;101266.19;;;10.98;73.28
61014;BME280;46899;47.542;19.082;2023-04-09T11:23:27;101268.44;;;10.75;76.42
61014;BME280;46899;47.542;19.082;2023-04-09T11:26:36;101269.78;;;10.53;74.75
61014;BME280;46899;47.542;19.082;2023-04-09T11:29:39;101262.44;;;10.27;78.85
61014;BME280;46899;47.542;19.082;2023-04-09T11:32:42;101265.91;;;10.29;79.07
61014;BME280;46899;47.542;19.082;2023-04-09T11:35:44;101264.44;;;10.13;76.23
61014;BME280;46899;47.542;19.082;2023-04-09T11:38:47;101265.41;;;10.53;76.98
61014;BME280;46899;47.542;19.082;2023-04-09T11:41:51;101259.50;;;10.86;72.73
61014;BME280;46899;47.542;19.082;2023-04-09T11:44:54;101259.44;;;10.89;71.70
61014;BME280;46899;47.542;19.082;2023-04-09T11:47:56;101260.16;;;11.34;69.73
61014;BME280;46899;47.542;19.082;2023-04-09T11:51:00;101258.81;;;11.17;68.38
61014;BME280;46899;47.542;19.082;2023-04-09T11:54:06;101259.53;;;11.60;68.15
61014;BME280;46899;47.542;19.082;2023-04-09T11:57:09;101263.69;;;12.02;68.95
61014;BME280;46899;47.542;19.082;2023-04-09T12:00:12;101259.56;;;12.26;67.70
61014;BME280;46899;47.542;19.082;2023-04-09T12:03:15;101264.56;;;12.33;65.38
61014;BME280;46899;47.542;19.082;2023-04-09T12:06:21;101255.34;;;12.53;64.87
61014;BME280;46899;47.542;19.082;2023-04-09T12:09:26;101253.75;;;12.47;67.19
61014;BME280;46899;47.542;19.082;2023-04-09T12:12:29;101257.22;;;12.48;71.12
61014;BME280;46899;47.542;19.082;2023-04-09T12:15:33;101254.47;;;12.81;68.40
61014;BME280;46899;47.542;19.082;2023-04-09T12:18:36;101254.78;;;12.71;64.74
61014;BME280;46899;47.542;19.082;2023-04-09T12:24:51;101238.66;;;12.86;66.45
61014;BME280;46899;47.542;19.082;2023-04-09T12:27:54;101244.44;;;12.68;63.32
61014;BME280;46899;47.542;19.082;2023-04-09T12:30:58;101245.59;;;12.87;62.19
61014;BME280;46899;47.542;19.082;2023-04-09T12:34:01;101236.06;;;12.57;62.58
61014;BME280;46899;47.542;19.082;2023-04-09T12:37:03;101238.59;;;12.60;62.21
61014;BME280;46899;47.542;19.082;2023-04-09T12:40:06;101238.09;;;12.47;63.28
61014;BME280;46899;47.542;19.082;2023-04-09T12:43:09;101230.13;;;12.52;63.93
61014;BME280;46899;47.542;19.082;2023-04-09T12:46:12;101234.41;;;12.54;61.65
61014;BME280;46899;47.542;19.082;2023-04-09T12:49:15;101232.66;;;12.55;63.28
61014;BME280;46899;47.542;19.082;2023-04-09T12:52:17;101229.56;;;12.41;61.95
61014;BME280;46899;47.542;19.082;2023-04-09T12:55:22;101229.13;;;12.56;64.75
61014;BME280;46899;47.542;19.082;2023-04-09T12:58:25;101223.63;;;12.65;62.05
61014;BME280;46899;47.542;19.082;2023-04-09T13:01:28;101235.25;;;12.55;63.96
61014;BME280;46899;47.542;19.082;2023-04-09T13:04:31;101229.34;;;12.77;61.27
61014;BME280;46899;47.542;19.082;2023-04-09T13:07:33;101224.44;;;12.37;63.62
61014;BME280;46899;47.542;19.082;2023-04-09T13:10:36;101217.25;;;12.15;65.02
61014;BME280;46899;47.542;19.082;2023-04-09T13:13:39;101215.78;;;12.05;64.05
61014;BME280;46899;47.542;19.082;2023-04-09T13:16:44;101209.84;;;11.68;67.28
61014;BME280;46899;47.542;19.082;2023-04-09T13:19:46;101204.44;;;11.74;64.63
61014;BME280;46899;47.542;19.082;2023-04-09T13:22:49;101213.31;;;11.68;63.38
61014;BME280;46899;47.542;19.082;2023-04-09T13:25:52;101212.09;;;11.81;62.89
61014;BME280;46899;47.542;19.082;2023-04-09T13:28:55;101206.28;;;12.02;62.58
61014;BME280;46899;47.542;19.082;2023-04-09T13:31:57;101204.75;;;11.95;62.79
61014;BME280;46899;47.542;19.082;2023-04-09T13:35:00;101209.84;;;12.00;60.48
61014;BME280;46899;47.542;19.082;2023-04-09T13:38:02;101208.03;;;12.03;59.99
61014;BME280;46899;47.542;19.082;2023-04-09T13:41:05;101201.69;;;12.12;61.82
61014;BME280;46899;47.542;19.082;2023-04-09T13:44:08;101195.19;;;12.26;60.53
61014;BME280;46899;47.542;19.082;2023-04-09T13:47:11;101197.75;;;12.28;61.58
61014;BME280;46899;47.542;19.082;2023-04-09T13:50:14;101205.16;;;12.42;58.25
61014;BME280;46899;47.542;19.082;2023-04-09T13:53:18;101201.62;;;12.44;57.42
61014;BME280;46899;47.542;19.082;2023-04-09T13:56:21;101198.97;;;12.75;58.34
61014;BME280;46899;47.542;19.082;2023-04-09T13:59:24;101192.50;;;13.16;55.54
61014;BME280;46899;47.542;19.082;2023-04-09T14:02:26;101198.47;;;13.19;53.93
61014;BME280;46899;47.542;19.082;2023-04-09T14:05:31;101194.75;;;13.26;53.33
61014;BME280;46899;47.542;19.082;2023-04-09T14:08:34;101188.12;;;13.16;52.16
61014;BME280;46899;47.542;19.082;2023-04-09T14:11:37;101188.12;;;12.87;53.77
61014;BME280;46899;47.542;19.082;2023-04-09T14:14:39;101179.19;;;13.23;53.32
61014;BME280;46899;47.542;19.082;2023-04-09T14:17:47;101185.75;;;13.61;51.95
61014;BME280;46899;47.542;19.082;2023-04-09T14:20:49;101189.94;;;13.90;53.98
61014;BME280;46899;47.542;19.082;2023-04-09T14:23:52;101179.50;;;13.90;52.07
61014;BME280;46899;47.542;19.082;2023-04-09T14:26:55;101174.84;;;13.48;52.62
61014;BME280;46899;47.542;19.082;2023-04-09T14:29:58;101167.22;;;13.42;51.85
61014;BME280;46899;47.542;19.082;2023-04-09T14:33:00;101168.81;;;13.20;51.82
61014;BME280;46899;47.542;19.082;2023-04-09T14:36:03;101170.41;;;13.24;53.30
61014;BME280;46899;47.542;19.082;2023-04-09T14:39:06;101163.19;;;13.32;54.35
61014;BME280;46899;47.542;19.082;2023-04-09T14:42:08;101158.59;;;13.39;51.92
61014;BME280;46899;47.542;19.082;2023-04-09T14:45:11;101160.34;;;13.14;53.35
61014;BME280;46899;47.542;19.082;2023-04-09T14:48:13;101166.94;;;13.50;53.17
61014;BME280;46899;47.542;19.082;2023-04-09T14:51:16;101158.38;;;13.45;53.22
61014;BME280;46899;47.542;19.082;2023-04-09T14:54:19;101161.66;;;13.76;51.95
61014;BME280;46899;47.542;19.082;2023-04-09T14:57:22;101159.75;;;13.04;52.52
61014;BME280;46899;47.542;19.082;2023-04-09T15:00:25;101155.56;;;12.71;52.59
61014;BME280;46899;47.542;19.082;2023-04-09T15:03:27;101157.72;;;12.29;54.28
61014;BME280;46899;47.542;19.082;2023-04-09T15:06:30;101153.09;;;12.08;54.44
61014;BME280;46899;47.542;19.082;2023-04-09T15:09:33;101164.03;;;12.20;55.19
61014;BME280;46899;47.542;19.082;2023-04-09T15:12:36;101152.84;;;11.86;56.57
61014;BME280;46899;47.542;19.082;2023-04-09T15:15:41;101155.44;;;11.52;58.83
61014;BME280;46899;47.542;19.082;2023-04-09T15:18:46;101148.87;;;11.38;59.39
61014;BME280;46899;47.542;19.082;2023-04-09T15:21:50;101146.66;;;11.23;58.99
61014;BME280;46899;47.542;19.082;2023-04-09T15:24:53;101150.66;;;11.02;58.48
61014;BME280;46899;47.542;19.082;2023-04-09T15:27:56;101150.84;;;10.94;59.48
61014;BME280;46899;47.542;19.082;2023-04-09T15:30:59;101150.94;;;10.90;62.12
61014;BME280;46899;47.542;19.082;2023-04-09T15:34:01;101148.47;;;10.85;60.15
61014;BME280;46899;47.542;19.082;2023-04-09T15:37:04;101149.88;;;10.62;60.97
61014;BME280;46899;47.542;19.082;2023-04-09T15:40:06;101146.41;;;10.61;63.29
61014;BME280;46899;47.542;19.082;2023-04-09T15:43:10;101157.69;;;10.60;62.00
61014;BME280;46899;47.542;19.082;2023-04-09T15:46:12;101152.75;;;10.48;62.94
61014;BME280;46899;47.542;19.082;2023-04-09T15:49:17;101154.47;;;10.49;61.58
61014;BME280;46899;47.542;19.082;2023-04-09T15:52:21;101150.25;;;10.45;64.27
61014;BME280;46899;47.542;19.082;2023-04-09T15:55:23;101157.38;;;10.36;65.12
61014;BME280;46899;47.542;19.082;2023-04-09T15:58:27;101148.50;;;10.44;65.79
61014;BME280;46899;47.542;19.082;2023-04-09T16:01:30;101146.16;;;10.32;68.41
61014;BME280;46899;47.542;19.082;2023-04-09T16:04:33;101148.97;;;10.23;67.04